sensor_id;sensor_type;location;lat;lon;timestamp;P1;durP1;ratioP1;P2;durP2;ratioP2
1416;SDS011;703;51.162;13.574;2023-11-21T00:02:11;3.80;;;3.60;;
1416;SDS011;703;51.162;13.574;2023-11-21T00:04:37;3.30;;;3.10;;
1416;SDS011;703;51.162;13.574;2023-11-21T00:07:02;3.73;;;3.53;;
1416;SDS011;703;51.162;13.574;2023-11-21T00:09:28;3.07;;;2.87;;
1416;SDS011;703;51.162;13.574;2023-11-21T00:11:54;3.00;;;2.90;;
1416;SDS011;703;51.162;13.574;2023-11-21T00:14:19;2.63;;;2.53;;
1416;SDS011;703;51.162;13.574;2023-11-21T00:16:45;3.10;;;2.90;;
1416;SDS011;703;51.162;13.574;2023-11-21T00:19:10;2.83;;;2.73;;
1416;SDS011;703;51.162;13.574;2023-11-21T00:21:36;2.70;;;2.50;;
1416;SDS011;703;51.162;13.574;2023-11-21T00:24:02;3.20;;;3.10;;
1416;SDS011;703;51.162;13.574;2023-11-21T00:26:28;3.70;;;3.50;;
1416;SDS011;703;51.162;13.574;2023-11-21T00:28:53;3.40;;;3.10;;
1416;SDS011;703;51.162;13.574;2023-11-21T00:31:19;2.90;;;2.70;;
1416;SDS011;703;51.162;13.574;2023-11-21T00:33:45;2.83;;;2.63;;
1416;SDS011;703;51.162;13.574;2023-11-21T00:36:10;3.90;;;3.60;;
1416;SDS011;703;51.162;13.574;2023-11-21T00:38:36;2.60;;;2.50;;
1416;SDS011;703;51.162;13.574;2023-11-21T00:41:04;2.50;;;2.37;;
1416;SDS011;703;51.162;13.574;2023-11-21T00:43:31;2.87;;;2.70;;
1416;SDS011;703;51.162;13.574;2023-11-21T00:45:58;3.53;;;3.23;;
1416;SDS011;703;51.162;13.574;2023-11-21T00:48:24;2.30;;;2.20;;
1416;SDS011;703;51.162;13.574;2023-11-21T00:50:49;3.23;;;3.07;;
1416;SDS011;703;51.162;13.574;2023-11-21T00:53:15;3.27;;;3.17;;
1416;SDS011;703;51.162;13.574;2023-11-21T00:55:41;3.57;;;3.33;;
1416;SDS011;703;51.162;13.574;2023-11-21T00:58:06;3.27;;;3.03;;
1416;SDS011;703;51.162;13.574;2023-11-21T01:00:32;2.27;;;2.17;;
1416;SDS011;703;51.162;13.574;2023-11-21T01:02:58;3.47;;;3.23;;
1416;SDS011;703;51.162;13.574;2023-11-21T01:05:24;2.80;;;2.70;;
1416;SDS011;703;51.162;13.574;2023-11-21T01:07:50;4.00;;;3.80;;
1416;SDS011;703;51.162;13.574;2023-11-21T01:10:15;3.57;;;3.37;;
1416;SDS011;703;51.162;13.574;2023-11-21T01:12:42;3.30;;;3.10;;
1416;SDS011;703;51.162;13.574;2023-11-21T01:15:07;3.47;;;3.27;;
1416;SDS011;703;51.162;13.574;2023-11-21T01:17:33;2.20;;;2.10;;
1416;SDS011;703;51.162;13.574;2023-11-21T01:19:59;3.40;;;3.20;;
1416;SDS011;703;51.162;13.574;2023-11-21T01:22:26;3.80;;;3.50;;
1416;SDS011;703;51.162;13.574;2023-11-21T01:24:52;3.33;;;3.13;;
1416;SDS011;703;51.162;13.574;2023-11-21T01:27:18;2.90;;;2.70;;
1416;SDS011;703;51.162;13.574;2023-11-21T01:29:44;3.60;;;3.30;;
1416;SDS011;703;51.162;13.574;2023-11-21T01:32:09;3.50;;;3.30;;
1416;SDS011;703;51.162;13.574;2023-11-21T01:34:35;3.30;;;3.10;;
1416;SDS011;703;51.162;13.574;2023-11-21T01:37:01;2.97;;;2.77;;
1416;SDS011;703;51.162;13.574;2023-11-21T01:39:29;2.97;;;2.87;;
1416;SDS011;703;51.162;13.574;2023-11-21T01:41:55;3.20;;;3.00;;
1416;SDS011;703;51.162;13.574;2023-11-21T01:44:22;3.20;;;3.10;;
1416;SDS011;703;51.162;13.574;2023-11-21T01:46:49;2.97;;;2.80;;
1416;SDS011;703;51.162;13.574;2023-11-21T01:49:15;3.27;;;2.97;;
1416;SDS011;703;51.162;13.574;2023-11-21T01:51:42;4.40;;;2.50;;
1416;SDS011;703;51.162;13.574;2023-11-21T01:54:11;3.07;;;2.87;;
1416;SDS011;703;51.162;13.574;2023-11-21T01:56:37;3.03;;;2.93;;
1416;SDS011;703;51.162;13.574;2023-11-21T01:59:02;3.00;;;2.90;;
1416;SDS011;703;51.162;13.574;2023-11-21T02:01:28;4.27;;;3.97;;
1416;SDS011;703;51.162;13.574;2023-11-21T02:03:53;3.70;;;3.50;;
1416;SDS011;703;51.162;13.574;2023-11-21T02:06:20;2.90;;;2.80;;
1416;SDS011;703;51.162;13.574;2023-11-21T02:08:46;3.70;;;3.47;;
1416;SDS011;703;51.162;13.574;2023-11-21T02:11:12;3.60;;;3.40;;
1416;SDS011;703;51.162;13.574;2023-11-21T02:13:38;3.77;;;3.57;;
1416;SDS011;703;51.162;13.574;2023-11-21T02:16:08;3.03;;;2.83;;
1416;SDS011;703;51.162;13.574;2023-11-21T02:18:34;3.00;;;2.80;;
1416;SDS011;703;51.162;13.574;2023-11-21T02:21:01;3.93;;;3.70;;
1416;SDS011;703;51.162;13.574;2023-11-21T02:23:29;3.75;;;3.45;;
1416;SDS011;703;51.162;13.574;2023-11-21T02:25:55;4.43;;;3.40;;
1416;SDS011;703;51.162;13.574;2023-11-21T02:28:20;8.23;;;2.97;;
1416;SDS011;703;51.162;13.574;2023-11-21T02:30:50;3.30;;;3.10;;
1416;SDS011;703;51.162;13.574;2023-11-21T02:33:20;3.73;;;2.83;;
1416;SDS011;703;51.162;13.574;2023-11-21T02:35:46;3.20;;;3.00;;
1416;SDS011;703;51.162;13.574;2023-11-21T02:38:12;3.50;;;3.30;;
1416;SDS011;703;51.162;13.574;2023-11-21T02:40:37;3.47;;;3.17;;
1416;SDS011;703;51.162;13.574;2023-11-21T02:43:03;8.47;;;3.23;;
1416;SDS011;703;51.162;13.574;2023-11-21T02:45:30;3.43;;;3.23;;
1416;SDS011;703;51.162;13.574;2023-11-21T02:47:56;3.80;;;3.60;;
1416;SDS011;703;51.162;13.574;2023-11-21T02:50:22;3.27;;;3.07;;
1416;SDS011;703;51.162;13.574;2023-11-21T02:52:48;2.97;;;2.80;;
1416;SDS011;703;51.162;13.574;2023-11-21T02:55:13;4.37;;;3.30;;
1416;SDS011;703;51.162;13.574;2023-11-21T02:57:39;3.00;;;2.90;;
1416;SDS011;703;51.162;13.574;2023-11-21T03:00:05;10.73;;;4.20;;
1416;SDS011;703;51.162;13.574;2023-11-21T03:02:32;4.10;;;3.90;;
1416;SDS011;703;51.162;13.574;2023-11-21T03:05:01;3.30;;;3.15;;
1416;SDS011;703;51.162;13.574;2023-11-21T03:07:27;2.97;;;2.77;;
1416;SDS011;703;51.162;13.574;2023-11-21T03:09:52;4.10;;;3.80;;
1416;SDS011;703;51.162;13.574;2023-11-21T03:14:44;4.50;;;3.30;;
1416;SDS011;703;51.162;13.574;2023-11-21T03:17:10;3.57;;;3.27;;
1416;SDS011;703;51.162;13.574;2023-11-21T03:19:36;6.30;;;5.90;;
1416;SDS011;703;51.162;13.574;2023-11-21T03:24:29;4.50;;;4.10;;
1416;SDS011;703;51.162;13.574;2023-11-21T03:26:54;3.90;;;3.43;;
1416;SDS011;703;51.162;13.574;2023-11-21T03:29:20;3.65;;;3.45;;
1416;SDS011;703;51.162;13.574;2023-11-21T03:31:45;2.97;;;2.77;;
1416;SDS011;703;51.162;13.574;2023-11-21T03:34:14;3.27;;;3.17;;
1416;SDS011;703;51.162;13.574;2023-11-21T03:36:50;3.50;;;3.30;;
1416;SDS011;703;51.162;13.574;2023-11-21T03:39:17;3.27;;;3.07;;
1416;SDS011;703;51.162;13.574;2023-11-21T03:41:43;5.50;;;2.90;;
1416;SDS011;703;51.162;13.574;2023-11-21T03:44:09;3.47;;;3.30;;
1416;SDS011;703;51.162;13.574;2023-11-21T03:46:35;3.50;;;3.30;;
1416;SDS011;703;51.162;13.574;2023-11-21T03:49:01;3.40;;;3.13;;
1416;SDS011;703;51.162;13.574;2023-11-21T03:51:26;5.13;;;4.80;;
1416;SDS011;703;51.162;13.574;2023-11-21T03:53:52;3.57;;;3.37;;
1416;SDS011;703;51.162;13.574;2023-11-21T03:56:17;3.47;;;3.30;;
1416;SDS011;703;51.162;13.574;2023-11-21T03:58:43;3.53;;;3.33;;
1416;SDS011;703;51.162;13.574;2023-11-21T04:01:08;3.47;;;3.17;;
1416;SDS011;703;51.162;13.574;2023-11-21T04:03:34;3.20;;;3.00;;
1416;SDS011;703;51.162;13.574;2023-11-21T04:05:59;4.47;;;4.13;;
1416;SDS011;703;51.162;13.574;2023-11-21T04:10:51;5.77;;;5.37;;
1416;SDS011;703;51.162;13.574;2023-11-21T04:13:18;8.10;;;5.47;;
1416;SDS011;703;51.162;13.574;2023-11-21T04:15:44;4.63;;;4.20;;
1416;SDS011;703;51.162;13.574;2023-11-21T04:18:09;4.20;;;3.80;;
1416;SDS011;703;51.162;13.574;2023-11-21T04:20:35;17.13;;;4.23;;
1416;SDS011;703;51.162;13.574;2023-11-21T04:23:00;3.87;;;3.67;;
1416;SDS011;703;51.162;13.574;2023-11-21T04:25:26;4.03;;;3.73;;
1416;SDS011;703;51.162;13.574;2023-11-21T04:27:53;3.57;;;3.37;;
1416;SDS011;703;51.162;13.574;2023-11-21T04:30:19;3.80;;;3.60;;
1416;SDS011;703;51.162;13.574;2023-11-21T04:32:45;3.90;;;3.60;;
1416;SDS011;703;51.162;13.574;2023-11-21T04:35:11;3.60;;;3.30;;
1416;SDS011;703;51.162;13.574;2023-11-21T04:37:37;4.80;;;3.70;;
1416;SDS011;703;51.162;13.574;2023-11-21T04:40:03;5.10;;;4.70;;
1416;SDS011;703;51.162;13.574;2023-11-21T04:42:33;3.53;;;2.97;;
1416;SDS011;703;51.162;13.574;2023-11-21T04:45:02;4.43;;;4.13;;
1416;SDS011;703;51.162;13.574;2023-11-21T04:47:32;4.10;;;3.77;;
1416;SDS011;703;51.162;13.574;2023-11-21T04:49:57;7.67;;;7.00;;
1416;SDS011;703;51.162;13.574;2023-11-21T04:52:23;3.27;;;3.17;;
1416;SDS011;703;51.162;13.574;2023-11-21T04:54:49;3.73;;;3.53;;
1416;SDS011;703;51.162;13.574;2023-11-21T04:57:14;4.97;;;4.47;;
1416;SDS011;703;51.162;13.574;2023-11-21T04:59:40;4.97;;;4.57;;
1416;SDS011;703;51.162;13.574;2023-11-21T05:02:05;5.17;;;3.53;;
1416;SDS011;703;51.162;13.574;2023-11-21T05:04:31;4.13;;;3.87;;
1416;SDS011;703;51.162;13.574;2023-11-21T05:06:56;5.60;;;3.37;;
1416;SDS011;703;51.162;13.574;2023-11-21T05:09:22;5.53;;;4.60;;
1416;SDS011;703;51.162;13.574;2023-11-21T05:11:47;5.03;;;4.60;;
1416;SDS011;703;51.162;13.574;2023-11-21T05:14:13;5.27;;;4.87;;
1416;SDS011;703;51.162;13.574;2023-11-21T05:16:39;5.83;;;5.43;;
1416;SDS011;703;51.162;13.574;2023-11-21T05:19:04;4.57;;;4.07;;
1416;SDS011;703;51.162;13.574;2023-11-21T05:21:31;4.80;;;4.40;;
1416;SDS011;703;51.162;13.574;2023-11-21T05:23:57;3.13;;;3.03;;
1416;SDS011;703;51.162;13.574;2023-11-21T05:26:23;9.60;;;3.70;;
1416;SDS011;703;51.162;13.574;2023-11-21T05:28:49;3.70;;;3.50;;
1416;SDS011;703;51.162;13.574;2023-11-21T05:31:15;3.40;;;3.20;;
1416;SDS011;703;51.162;13.574;2023-11-21T05:33:40;7.30;;;4.10;;
1416;SDS011;703;51.162;13.574;2023-11-21T05:36:07;6.73;;;4.63;;
1416;SDS011;703;51.162;13.574;2023-11-21T05:38:33;3.93;;;3.73;;
1416;SDS011;703;51.162;13.574;2023-11-21T05:40:59;4.27;;;4.03;;
1416;SDS011;703;51.162;13.574;2023-11-21T05:43:24;5.17;;;4.67;;
1416;SDS011;703;51.162;13.574;2023-11-21T05:45:49;4.87;;;4.50;;
1416;SDS011;703;51.162;13.574;2023-11-21T05:48:15;4.10;;;3.80;;
1416;SDS011;703;51.162;13.574;2023-11-21T05:50:40;4.30;;;3.90;;
1416;SDS011;703;51.162;13.574;2023-11-21T05:53:06;3.43;;;3.23;;
1416;SDS011;703;51.162;13.574;2023-11-21T05:55:32;6.13;;;4.47;;
1416;SDS011;703;51.162;13.574;2023-11-21T05:57:57;4.33;;;4.03;;
1416;SDS011;703;51.162;13.574;2023-11-21T06:00:23;4.57;;;4.20;;
1416;SDS011;703;51.162;13.574;2023-11-21T06:02:51;4.00;;;3.70;;
1416;SDS011;703;51.162;13.574;2023-11-21T06:05:18;4.40;;;3.97;;
1416;SDS011;703;51.162;13.574;2023-11-21T06:07:45;5.20;;;4.80;;
1416;SDS011;703;51.162;13.574;2023-11-21T06:10:11;6.13;;;5.60;;
1416;SDS011;703;51.162;13.574;2023-11-21T06:12:42;4.70;;;4.33;;
1416;SDS011;703;51.162;13.574;2023-11-21T06:15:08;7.27;;;6.57;;
1416;SDS011;703;51.162;13.574;2023-11-21T06:17:38;4.73;;;4.40;;
1416;SDS011;703;51.162;13.574;2023-11-21T06:20:08;3.60;;;3.30;;
1416;SDS011;703;51.162;13.574;2023-11-21T06:22:35;7.33;;;6.80;;
1416;SDS011;703;51.162;13.574;2023-11-21T06:25:04;7.73;;;4.90;;
1416;SDS011;703;51.162;13.574;2023-11-21T06:27:31;5.33;;;4.83;;
1416;SDS011;703;51.162;13.574;2023-11-21T06:29:57;9.57;;;5.53;;
1416;SDS011;703;51.162;13.574;2023-11-21T06:32:23;6.57;;;5.57;;
1416;SDS011;703;51.162;13.574;2023-11-21T06:34:49;4.33;;;4.03;;
1416;SDS011;703;51.162;13.574;2023-11-21T06:37:14;5.03;;;4.13;;
1416;SDS011;703;51.162;13.574;2023-11-21T06:39:40;4.57;;;4.27;;
1416;SDS011;703;51.162;13.574;2023-11-21T06:42:06;5.50;;;5.00;;
1416;SDS011;703;51.162;13.574;2023-11-21T06:44:32;7.60;;;5.10;;
1416;SDS011;703;51.162;13.574;2023-11-21T06:46:58;5.93;;;5.30;;
1416;SDS011;703;51.162;13.574;2023-11-21T06:49:24;6.80;;;6.10;;
1416;SDS011;703;51.162;13.574;2023-11-21T06:51:49;5.67;;;5.27;;
1416;SDS011;703;51.162;13.574;2023-11-21T06:54:15;7.10;;;6.53;;
1416;SDS011;703;51.162;13.574;2023-11-21T06:56:40;8.50;;;7.17;;
1416;SDS011;703;51.162;13.574;2023-11-21T06:59:06;17.90;;;12.83;;
1416;SDS011;703;51.162;13.574;2023-11-21T07:01:31;13.80;;;9.73;;
1416;SDS011;703;51.162;13.574;2023-11-21T07:04:03;9.20;;;8.27;;
1416;SDS011;703;51.162;13.574;2023-11-21T07:06:30;13.47;;;10.13;;
1416;SDS011;703;51.162;13.574;2023-11-21T07:08:55;8.30;;;7.00;;
1416;SDS011;703;51.162;13.574;2023-11-21T07:18:37;5.17;;;4.87;;
1416;SDS011;703;51.162;13.574;2023-11-21T07:21:02;6.53;;;6.23;;
1416;SDS011;703;51.162;13.574;2023-11-21T07:23:28;6.37;;;5.50;;
1416;SDS011;703;51.162;13.574;2023-11-21T07:25:54;6.83;;;6.23;;
1416;SDS011;703;51.162;13.574;2023-11-21T07:28:19;14.03;;;7.10;;
1416;SDS011;703;51.162;13.574;2023-11-21T07:30:45;6.73;;;6.17;;
1416;SDS011;703;51.162;13.574;2023-11-21T07:33:10;9.20;;;6.37;;
1416;SDS011;703;51.162;13.574;2023-11-21T07:35:36;5.83;;;5.23;;
1416;SDS011;703;51.162;13.574;2023-11-21T07:38:01;6.93;;;6.27;;
1416;SDS011;703;51.162;13.574;2023-11-21T07:40:27;7.80;;;7.10;;
1416;SDS011;703;51.162;13.574;2023-11-21T07:42:53;7.17;;;6.50;;
1416;SDS011;703;51.162;13.574;2023-11-21T07:45:18;6.33;;;5.93;;
1416;SDS011;703;51.162;13.574;2023-11-21T07:47:44;9.73;;;6.70;;
1416;SDS011;703;51.162;13.574;2023-11-21T07:50:09;7.43;;;6.70;;
1416;SDS011;703;51.162;13.574;2023-11-21T07:52:35;9.20;;;6.53;;
1416;SDS011;703;51.162;13.574;2023-11-21T07:55:00;9.17;;;7.77;;
1416;SDS011;703;51.162;13.574;2023-11-21T07:57:26;9.53;;;6.70;;
1416;SDS011;703;51.162;13.574;2023-11-21T07:59:52;11.80;;;6.10;;
1416;SDS011;703;51.162;13.574;2023-11-21T08:02:19;5.97;;;5.60;;
1416;SDS011;703;51.162;13.574;2023-11-21T08:04:44;8.60;;;7.77;;
1416;SDS011;703;51.162;13.574;2023-11-21T08:07:10;11.90;;;9.00;;
1416;SDS011;703;51.162;13.574;2023-11-21T08:09:36;8.47;;;7.80;;
1416;SDS011;703;51.162;13.574;2023-11-21T08:12:01;9.13;;;6.73;;
1416;SDS011;703;51.162;13.574;2023-11-21T08:14:28;10.50;;;7.17;;
1416;SDS011;703;51.162;13.574;2023-11-21T08:16:53;8.33;;;7.50;;
1416;SDS011;703;51.162;13.574;2023-11-21T08:19:22;7.03;;;6.30;;
1416;SDS011;703;51.162;13.574;2023-11-21T08:21:50;9.17;;;7.03;;
1416;SDS011;703;51.162;13.574;2023-11-21T08:24:16;10.60;;;7.43;;
1416;SDS011;703;51.162;13.574;2023-11-21T08:26:41;9.97;;;9.07;;
1416;SDS011;703;51.162;13.574;2023-11-21T08:29:08;8.50;;;7.80;;
1416;SDS011;703;51.162;13.574;2023-11-21T08:31:33;12.47;;;8.57;;
1416;SDS011;703;51.162;13.574;2023-11-21T08:33:59;6.80;;;6.17;;
1416;SDS011;703;51.162;13.574;2023-11-21T08:36:28;7.83;;;6.97;;
1416;SDS011;703;51.162;13.574;2023-11-21T08:38:53;8.93;;;8.03;;
1416;SDS011;703;51.162;13.574;2023-11-21T08:41:19;6.97;;;6.47;;
1416;SDS011;703;51.162;13.574;2023-11-21T08:43:49;11.17;;;8.57;;
1416;SDS011;703;51.162;13.574;2023-11-21T08:46:15;9.53;;;7.17;;
1416;SDS011;703;51.162;13.574;2023-11-21T08:48:42;12.33;;;7.57;;
1416;SDS011;703;51.162;13.574;2023-11-21T08:51:09;11.07;;;9.90;;
1416;SDS011;703;51.162;13.574;2023-11-21T08:53:36;10.00;;;8.83;;
1416;SDS011;703;51.162;13.574;2023-11-21T08:56:02;9.33;;;7.30;;
1416;SDS011;703;51.162;13.574;2023-11-21T08:58:29;7.73;;;7.17;;
1416;SDS011;703;51.162;13.574;2023-11-21T09:00:55;7.93;;;6.80;;
1416;SDS011;703;51.162;13.574;2023-11-21T09:03:21;8.63;;;7.93;;
1416;SDS011;703;51.162;13.574;2023-11-21T09:05:46;5.60;;;5.13;;
1416;SDS011;703;51.162;13.574;2023-11-21T09:08:12;6.63;;;3.70;;
1416;SDS011;703;51.162;13.574;2023-11-21T09:10:38;3.30;;;3.10;;
1416;SDS011;703;51.162;13.574;2023-11-21T09:13:04;2.80;;;2.70;;
1416;SDS011;703;51.162;13.574;2023-11-21T09:15:30;4.80;;;3.50;;
1416;SDS011;703;51.162;13.574;2023-11-21T09:17:55;3.80;;;3.60;;
1416;SDS011;703;51.162;13.574;2023-11-21T09:20:21;5.13;;;4.83;;
1416;SDS011;703;51.162;13.574;2023-11-21T09:22:48;4.87;;;4.57;;
1416;SDS011;703;51.162;13.574;2023-11-21T09:25:14;4.47;;;4.27;;
1416;SDS011;703;51.162;13.574;2023-11-21T09:27:39;7.37;;;6.73;;
1416;SDS011;703;51.162;13.574;2023-11-21T09:30:06;5.77;;;5.27;;
1416;SDS011;703;51.162;13.574;2023-11-21T09:32:34;6.07;;;5.47;;
1416;SDS011;703;51.162;13.574;2023-11-21T09:35:02;6.50;;;6.07;;
1416;SDS011;703;51.162;13.574;2023-11-21T09:37:28;5.93;;;5.40;;
1416;SDS011;703;51.162;13.574;2023-11-21T09:39:54;5.43;;;5.10;;
1416;SDS011;703;51.162;13.574;2023-11-21T09:42:23;4.77;;;4.57;;
1416;SDS011;703;51.162;13.574;2023-11-21T09:45:03;7.27;;;6.67;;
1416;SDS011;703;51.162;13.574;2023-11-21T09:47:38;5.50;;;5.10;;
1416;SDS011;703;51.162;13.574;2023-11-21T09:50:06;8.50;;;7.70;;
1416;SDS011;703;51.162;13.574;2023-11-21T09:52:39;6.30;;;5.80;;
1416;SDS011;703;51.162;13.574;2023-11-21T09:55:20;5.47;;;5.20;;
1416;SDS011;703;51.162;13.574;2023-11-21T09:57:47;5.73;;;5.33;;
1416;SDS011;703;51.162;13.574;2023-11-21T10:00:13;9.43;;;8.57;;
1416;SDS011;703;51.162;13.574;2023-11-21T10:02:42;6.57;;;6.17;;
1416;SDS011;703;51.162;13.574;2023-11-21T10:05:08;7.73;;;7.13;;
1416;SDS011;703;51.162;13.574;2023-11-21T10:07:37;10.83;;;9.83;;
1416;SDS011;703;51.162;13.574;2023-11-21T10:10:05;14.90;;;13.40;;
1416;SDS011;703;51.162;13.574;2023-11-21T10:12:33;11.60;;;10.60;;
1416;SDS011;703;51.162;13.574;2023-11-21T10:14:59;9.13;;;8.53;;
1416;SDS011;703;51.162;13.574;2023-11-21T10:17:27;7.97;;;7.27;;
1416;SDS011;703;51.162;13.574;2023-11-21T10:20:01;7.43;;;6.93;;
1416;SDS011;703;51.162;13.574;2023-11-21T10:22:31;7.63;;;7.13;;
1416;SDS011;703;51.162;13.574;2023-11-21T10:24:56;6.63;;;5.93;;
1416;SDS011;703;51.162;13.574;2023-11-21T10:27:22;8.63;;;7.93;;
1416;SDS011;703;51.162;13.574;2023-11-21T10:29:48;12.10;;;7.53;;
1416;SDS011;703;51.162;13.574;2023-11-21T10:32:16;5.87;;;5.47;;
1416;SDS011;703;51.162;13.574;2023-11-21T10:34:41;5.97;;;5.50;;
1416;SDS011;703;51.162;13.574;2023-11-21T10:37:13;7.00;;;5.80;;
1416;SDS011;703;51.162;13.574;2023-11-21T10:39:40;7.73;;;7.30;;
1416;SDS011;703;51.162;13.574;2023-11-21T10:42:08;5.90;;;5.50;;
1416;SDS011;703;51.162;13.574;2023-11-21T10:44:35;6.30;;;5.90;;
1416;SDS011;703;51.162;13.574;2023-11-21T10:47:00;6.13;;;5.77;;
1416;SDS011;703;51.162;13.574;2023-11-21T10:49:27;6.87;;;6.47;;
1416;SDS011;703;51.162;13.574;2023-11-21T10:51:53;8.77;;;8.17;;
1416;SDS011;703;51.162;13.574;2023-11-21T10:54:23;7.97;;;7.30;;
1416;SDS011;703;51.162;13.574;2023-11-21T10:56:50;7.53;;;6.93;;
1416;SDS011;703;51.162;13.574;2023-11-21T10:59:20;6.90;;;6.53;;
1416;SDS011;703;51.162;13.574;2023-11-21T11:01:50;6.73;;;6.23;;
1416;SDS011;703;51.162;13.574;2023-11-21T11:04:18;6.37;;;5.87;;
1416;SDS011;703;51.162;13.574;2023-11-21T11:06:44;7.60;;;7.10;;
1416;SDS011;703;51.162;13.574;2023-11-21T11:09:19;8.47;;;6.60;;
1416;SDS011;703;51.162;13.574;2023-11-21T11:11:46;7.90;;;7.40;;
1416;SDS011;703;51.162;13.574;2023-11-21T11:14:11;7.00;;;6.60;;
1416;SDS011;703;51.162;13.574;2023-11-21T11:16:41;8.00;;;7.20;;
1416;SDS011;703;51.162;13.574;2023-11-21T11:19:08;7.10;;;6.50;;
1416;SDS011;703;51.162;13.574;2023-11-21T11:21:40;8.27;;;7.30;;
1416;SDS011;703;51.162;13.574;2023-11-21T11:26:46;7.20;;;6.67;;
1416;SDS011;703;51.162;13.574;2023-11-21T11:29:30;5.87;;;5.57;;
1416;SDS011;703;51.162;13.574;2023-11-21T11:35:10;8.33;;;7.53;;
1416;SDS011;703;51.162;13.574;2023-11-21T11:37:44;6.60;;;6.10;;
1416;SDS011;703;51.162;13.574;2023-11-21T11:40:13;7.73;;;7.10;;
1416;SDS011;703;51.162;13.574;2023-11-21T11:42:38;8.17;;;7.67;;
1416;SDS011;703;51.162;13.574;2023-11-21T11:45:19;7.30;;;6.90;;
1416;SDS011;703;51.162;13.574;2023-11-21T11:47:44;10.40;;;7.33;;
1416;SDS011;703;51.162;13.574;2023-11-21T11:50:13;7.23;;;6.83;;
1416;SDS011;703;51.162;13.574;2023-11-21T11:55:11;9.50;;;9.00;;
1416;SDS011;703;51.162;13.574;2023-11-21T11:57:43;7.80;;;7.37;;
1416;SDS011;703;51.162;13.574;2023-11-21T12:02:42;9.27;;;7.80;;
1416;SDS011;703;51.162;13.574;2023-11-21T12:05:10;8.30;;;7.50;;
1416;SDS011;703;51.162;13.574;2023-11-21T12:07:56;7.53;;;7.13;;
1416;SDS011;703;51.162;13.574;2023-11-21T12:10:32;8.23;;;7.53;;
1416;SDS011;703;51.162;13.574;2023-11-21T12:13:03;8.67;;;7.90;;
1416;SDS011;703;51.162;13.574;2023-11-21T12:15:32;8.10;;;7.30;;
1416;SDS011;703;51.162;13.574;2023-11-21T12:17:58;10.93;;;6.30;;
1416;SDS011;703;51.162;13.574;2023-11-21T12:20:24;11.07;;;8.10;;
1416;SDS011;703;51.162;13.574;2023-11-21T12:22:58;7.60;;;6.90;;
1416;SDS011;703;51.162;13.574;2023-11-21T12:25:25;6.80;;;6.30;;
1416;SDS011;703;51.162;13.574;2023-11-21T12:27:54;7.37;;;6.70;;
1416;SDS011;703;51.162;13.574;2023-11-21T12:30:20;6.13;;;5.63;;
1416;SDS011;703;51.162;13.574;2023-11-21T12:32:52;6.80;;;6.23;;
1416;SDS011;703;51.162;13.574;2023-11-21T12:35:19;7.73;;;7.33;;
1416;SDS011;703;51.162;13.574;2023-11-21T12:37:49;7.80;;;7.27;;
1416;SDS011;703;51.162;13.574;2023-11-21T12:40:15;9.40;;;8.33;;
1416;SDS011;703;51.162;13.574;2023-11-21T12:42:42;5.23;;;4.93;;
1416;SDS011;703;51.162;13.574;2023-11-21T12:45:11;7.40;;;6.90;;
1416;SDS011;703;51.162;13.574;2023-11-21T12:47:45;9.57;;;8.83;;
1416;SDS011;703;51.162;13.574;2023-11-21T12:50:14;11.17;;;7.93;;
1416;SDS011;703;51.162;13.574;2023-11-21T12:52:44;7.60;;;7.10;;
1416;SDS011;703;51.162;13.574;2023-11-21T12:55:19;8.90;;;8.20;;
1416;SDS011;703;51.162;13.574;2023-11-21T12:57:49;9.93;;;9.03;;
1416;SDS011;703;51.162;13.574;2023-11-21T13:00:33;8.23;;;7.60;;
1416;SDS011;703;51.162;13.574;2023-11-21T13:03:02;8.33;;;6.30;;
1416;SDS011;703;51.162;13.574;2023-11-21T13:05:36;7.77;;;7.07;;
1416;SDS011;703;51.162;13.574;2023-11-21T13:08:04;8.00;;;7.40;;
1416;SDS011;703;51.162;13.574;2023-11-21T13:10:32;10.33;;;9.50;;
1416;SDS011;703;51.162;13.574;2023-11-21T13:13:01;8.40;;;7.80;;
1416;SDS011;703;51.162;13.574;2023-11-21T13:15:30;9.00;;;8.40;;
1416;SDS011;703;51.162;13.574;2023-11-21T13:17:56;35.43;;;10.30;;
1416;SDS011;703;51.162;13.574;2023-11-21T13:20:22;8.27;;;7.63;;
1416;SDS011;703;51.162;13.574;2023-11-21T13:22:50;16.27;;;7.90;;
1416;SDS011;703;51.162;13.574;2023-11-21T13:25:19;8.07;;;7.27;;
1416;SDS011;703;51.162;13.574;2023-11-21T13:27:48;9.00;;;8.23;;
1416;SDS011;703;51.162;13.574;2023-11-21T13:30:15;7.33;;;6.83;;
1416;SDS011;703;51.162;13.574;2023-11-21T13:32:44;8.80;;;7.63;;
1416;SDS011;703;51.162;13.574;2023-11-21T13:35:11;7.83;;;6.73;;
1416;SDS011;703;51.162;13.574;2023-11-21T13:37:46;9.17;;;8.47;;
1416;SDS011;703;51.162;13.574;2023-11-21T13:40:14;10.00;;;7.73;;
1416;SDS011;703;51.162;13.574;2023-11-21T13:42:44;10.60;;;9.73;;
1416;SDS011;703;51.162;13.574;2023-11-21T13:45:10;9.50;;;8.83;;
1416;SDS011;703;51.162;13.574;2023-11-21T13:47:37;9.40;;;8.70;;
1416;SDS011;703;51.162;13.574;2023-11-21T13:50:03;7.90;;;7.50;;
1416;SDS011;703;51.162;13.574;2023-11-21T13:52:33;7.00;;;6.50;;
1416;SDS011;703;51.162;13.574;2023-11-21T13:55:01;8.47;;;7.87;;
1416;SDS011;703;51.162;13.574;2023-11-21T13:57:31;10.33;;;9.30;;
1416;SDS011;703;51.162;13.574;2023-11-21T13:59:57;7.83;;;7.20;;
1416;SDS011;703;51.162;13.574;2023-11-21T14:02:24;6.80;;;6.40;;
1416;SDS011;703;51.162;13.574;2023-11-21T14:04:57;7.03;;;6.53;;
1416;SDS011;703;51.162;13.574;2023-11-21T14:07:25;9.70;;;6.87;;
1416;SDS011;703;51.162;13.574;2023-11-21T14:09:58;7.50;;;7.00;;
1416;SDS011;703;51.162;13.574;2023-11-21T14:12:24;9.93;;;9.33;;
1416;SDS011;703;51.162;13.574;2023-11-21T14:14:49;8.23;;;7.63;;
1416;SDS011;703;51.162;13.574;2023-11-21T14:17:15;10.17;;;9.33;;
1416;SDS011;703;51.162;13.574;2023-11-21T14:19:40;7.20;;;6.77;;
1416;SDS011;703;51.162;13.574;2023-11-21T14:22:08;8.70;;;8.20;;
1416;SDS011;703;51.162;13.574;2023-11-21T14:24:35;6.00;;;5.60;;
1416;SDS011;703;51.162;13.574;2023-11-21T14:27:01;7.73;;;7.20;;
1416;SDS011;703;51.162;13.574;2023-11-21T14:29:28;7.83;;;7.07;;
1416;SDS011;703;51.162;13.574;2023-11-21T14:31:54;8.43;;;6.73;;
1416;SDS011;703;51.162;13.574;2023-11-21T14:34:23;6.67;;;6.27;;
1416;SDS011;703;51.162;13.574;2023-11-21T14:36:49;9.10;;;8.30;;
1416;SDS011;703;51.162;13.574;2023-11-21T14:39:15;6.83;;;6.43;;
1416;SDS011;703;51.162;13.574;2023-11-21T14:41:52;6.83;;;6.40;;
1416;SDS011;703;51.162;13.574;2023-11-21T14:44:20;6.97;;;6.57;;
1416;SDS011;703;51.162;13.574;2023-11-21T14:46:50;8.30;;;7.53;;
1416;SDS011;703;51.162;13.574;2023-11-21T14:49:16;6.57;;;6.17;;
1416;SDS011;703;51.162;13.574;2023-11-21T14:51:44;8.50;;;7.67;;
1416;SDS011;703;51.162;13.574;2023-11-21T14:54:37;8.53;;;8.03;;
1416;SDS011;703;51.162;13.574;2023-11-21T14:57:08;10.80;;;9.83;;
1416;SDS011;703;51.162;13.574;2023-11-21T14:59:46;7.87;;;7.37;;
1416;SDS011;703;51.162;13.574;2023-11-21T15:02:16;7.03;;;6.63;;
1416;SDS011;703;51.162;13.574;2023-11-21T15:04:47;6.13;;;5.83;;
1416;SDS011;703;51.162;13.574;2023-11-21T15:07:16;6.37;;;5.87;;
1416;SDS011;703;51.162;13.574;2023-11-21T15:09:41;6.33;;;5.93;;
1416;SDS011;703;51.162;13.574;2023-11-21T15:12:08;10.43;;;7.07;;
1416;SDS011;703;51.162;13.574;2023-11-21T15:14:44;7.33;;;6.47;;
1416;SDS011;703;51.162;13.574;2023-11-21T15:17:13;7.70;;;5.27;;
1416;SDS011;703;51.162;13.574;2023-11-21T15:19:52;6.20;;;5.80;;
1416;SDS011;703;51.162;13.574;2023-11-21T15:22:18;7.30;;;6.90;;
1416;SDS011;703;51.162;13.574;2023-11-21T15:24:44;6.73;;;6.33;;
1416;SDS011;703;51.162;13.574;2023-11-21T15:27:12;6.17;;;5.87;;
1416;SDS011;703;51.162;13.574;2023-11-21T15:29:39;7.20;;;6.70;;
1416;SDS011;703;51.162;13.574;2023-11-21T15:32:08;5.60;;;5.40;;
1416;SDS011;703;51.162;13.574;2023-11-21T15:34:34;7.33;;;6.93;;
1416;SDS011;703;51.162;13.574;2023-11-21T15:37:00;6.27;;;5.90;;
1416;SDS011;703;51.162;13.574;2023-11-21T15:39:26;8.97;;;8.17;;
1416;SDS011;703;51.162;13.574;2023-11-21T15:41:58;8.97;;;8.03;;